createdAt,value
2022-12-18T00:01:34.494Z,18.63
2022-12-18T00:04:02.715Z,19.17
2022-12-18T00:06:29.907Z,20.73
2022-12-18T00:08:57.513Z,19.90
2022-12-18T00:11:25.230Z,20.77
2022-12-18T00:13:51.941Z,20.23
2022-12-18T00:16:23.601Z,19.73
2022-12-18T00:18:51.077Z,18.65
2022-12-18T00:21:17.397Z,21.23
2022-12-18T00:23:44.520Z,20.08
2022-12-18T00:26:21.597Z,21.27
2022-12-18T00:28:48.343Z,19.77
2022-12-18T00:31:16.312Z,20.92
2022-12-18T00:33:43.034Z,19.60
2022-12-18T00:36:17.126Z,20.02
2022-12-18T00:41:11.251Z,19.85
2022-12-18T00:43:38.548Z,19.85
2022-12-18T00:46:08.466Z,20.83
2022-12-18T00:48:36.086Z,20.85
2022-12-18T00:51:02.470Z,19.83
2022-12-18T00:53:28.859Z,19.48
2022-12-18T00:55:55.191Z,19.35
2022-12-18T00:58:21.538Z,20.55
2022-12-18T01:00:47.878Z,18.98
2022-12-18T01:03:15.185Z,20.42
2022-12-18T01:05:42.349Z,18.33
2022-12-18T01:08:08.748Z,18.67
2022-12-18T01:10:35.159Z,19.08
2022-12-18T01:13:01.493Z,18.40
2022-12-18T01:15:27.882Z,19.27
2022-12-18T01:17:54.610Z,18.63
2022-12-18T01:20:21.591Z,18.60
2022-12-18T01:22:48.001Z,17.70
2022-12-18T01:25:14.339Z,18.25
2022-12-18T01:27:40.773Z,18.30
2022-12-18T01:30:07.478Z,17.10
2022-12-18T01:32:33.875Z,18.42
2022-12-18T01:35:00.338Z,17.20
2022-12-18T01:37:26.640Z,17.17
2022-12-18T01:39:55.263Z,16.83
2022-12-18T01:42:22.120Z,16.88
2022-12-18T01:45:02.687Z,16.25
2022-12-18T01:47:28.978Z,15.93
2022-12-18T01:49:56.468Z,16.10
2022-12-18T01:52:23.089Z,17.63
2022-12-18T01:54:51.072Z,18.23
2022-12-18T01:57:17.792Z,17.10
2022-12-18T01:59:46.154Z,16.52
2022-12-18T02:02:12.756Z,15.98
2022-12-18T02:04:47.800Z,16.38
2022-12-18T02:07:24.837Z,14.30
2022-12-18T02:10:00.531Z,12.80
2022-12-18T02:12:50.310Z,13.98
2022-12-18T02:15:20.124Z,14.40
2022-12-18T02:17:57.750Z,14.20
2022-12-18T02:20:29.066Z,13.95
2022-12-18T02:22:58.250Z,15.43
2022-12-18T02:25:43.378Z,14.85
2022-12-18T02:28:12.553Z,11.82
2022-12-18T02:30:40.179Z,12.85
2022-12-18T02:33:09.487Z,11.80
2022-12-18T02:35:36.932Z,12.77
2022-12-18T02:38:04.500Z,12.90
2022-12-18T02:40:31.313Z,12.55
2022-12-18T02:43:03.524Z,14.07
2022-12-18T02:45:29.925Z,13.18
2022-12-18T02:47:56.977Z,12.68
2022-12-18T02:50:37.286Z,13.13
2022-12-18T02:53:03.615Z,12.43
2022-12-18T02:55:48.544Z,11.80
2022-12-18T02:58:30.193Z,12.35
2022-12-18T03:01:02.526Z,12.27
2022-12-18T03:03:31.116Z,11.93
2022-12-18T03:06:23.671Z,13.18
2022-12-18T03:08:52.021Z,12.32
2022-12-18T03:11:38.379Z,12.15
2022-12-18T03:14:04.960Z,11.13
2022-12-18T03:16:32.163Z,12.45
2022-12-18T03:19:10.065Z,11.75
2022-12-18T03:21:41.276Z,11.25
2022-12-18T03:24:08.980Z,11.85
2022-12-18T03:26:37.715Z,12.52
2022-12-18T03:29:07.833Z,11.32
2022-12-18T03:31:38.616Z,12.07
2022-12-18T03:34:14.276Z,11.40
2022-12-18T03:36:40.874Z,12.07
2022-12-18T03:39:07.321Z,11.93
2022-12-18T03:42:06.239Z,12.57
2022-12-18T03:44:35.321Z,11.13
2022-12-18T03:47:01.913Z,12.38
2022-12-18T03:49:28.385Z,11.63
2022-12-18T03:52:00.850Z,12.38
2022-12-18T03:54:27.890Z,11.73
2022-12-18T03:56:58.135Z,10.77
2022-12-18T03:59:25.065Z,11.02
2022-12-18T04:01:53.481Z,11.60
2022-12-18T04:04:20.218Z,10.20
2022-12-18T04:06:47.894Z,10.73
2022-12-18T04:09:14.618Z,11.00
2022-12-18T04:11:42.085Z,10.95
2022-12-18T04:14:09.924Z,11.48
2022-12-18T04:16:38.286Z,11.05
2022-12-18T04:19:05.019Z,11.05
2022-12-18T04:21:31.367Z,9.60
2022-12-18T04:23:57.721Z,9.65
2022-12-18T04:26:24.142Z,9.98
2022-12-18T04:28:50.478Z,9.25
2022-12-18T04:31:16.874Z,10.90
2022-12-18T04:33:43.477Z,10.05
2022-12-18T04:36:10.338Z,9.63
2022-12-18T04:38:36.729Z,9.75
2022-12-18T04:41:03.068Z,10.10
2022-12-18T04:43:29.573Z,9.35
2022-12-18T04:46:02.390Z,8.65
2022-12-18T04:48:28.749Z,9.05
2022-12-18T04:50:55.150Z,9.27
2022-12-18T04:53:21.474Z,8.57
2022-12-18T04:55:47.778Z,10.00
2022-12-18T04:58:14.124Z,9.48
2022-12-18T05:00:40.457Z,9.13
2022-12-18T05:03:06.765Z,9.48
2022-12-18T05:05:35.119Z,7.93
2022-12-18T05:08:01.778Z,8.77
2022-12-18T05:10:29.627Z,8.40
2022-12-18T05:13:02.327Z,8.18
2022-12-18T05:15:32.210Z,7.57
2022-12-18T05:17:59.259Z,8.13
2022-12-18T05:20:26.694Z,8.10
2022-12-18T05:22:54.282Z,7.43
2022-12-18T05:25:20.969Z,8.88
2022-12-18T05:27:47.331Z,7.40
2022-12-18T05:30:14.390Z,7.82
2022-12-18T05:32:41.310Z,8.25
2022-12-18T05:35:08.210Z,8.13
2022-12-18T05:37:38.196Z,8.40
2022-12-18T05:40:07.953Z,8.05
2022-12-18T05:42:34.323Z,7.35
2022-12-18T05:45:00.713Z,7.65
2022-12-18T05:47:28.001Z,6.07
2022-12-18T05:49:54.360Z,6.25
2022-12-18T05:52:20.698Z,5.95
2022-12-18T05:54:47.085Z,6.53
2022-12-18T05:57:13.576Z,7.05
2022-12-18T05:59:39.979Z,7.32
2022-12-18T06:02:06.392Z,7.28
2022-12-18T06:04:32.858Z,7.95
2022-12-18T06:06:59.239Z,6.78
2022-12-18T06:09:25.604Z,6.95
2022-12-18T06:11:52.854Z,7.20
2022-12-18T06:14:19.371Z,6.43
2022-12-18T06:16:45.740Z,6.00
2022-12-18T06:19:15.157Z,6.55
2022-12-18T06:21:42.815Z,6.57
2022-12-18T06:24:09.193Z,6.28
2022-12-18T06:26:37.481Z,6.18
2022-12-18T06:29:03.967Z,5.43
2022-12-18T06:31:30.370Z,5.28
2022-12-18T06:33:57.379Z,5.15
2022-12-18T06:36:23.942Z,4.88
2022-12-18T06:38:50.312Z,5.65
2022-12-18T06:41:17.761Z,5.25
2022-12-18T06:43:44.818Z,5.50
2022-12-18T06:46:11.493Z,5.68
2022-12-18T06:48:38.138Z,5.10
2022-12-18T06:51:04.628Z,5.13
2022-12-18T06:53:32.096Z,5.75
2022-12-18T06:56:09.771Z,5.75
2022-12-18T06:58:37.308Z,5.88
2022-12-18T07:01:04.961Z,6.70
2022-12-18T07:03:31.518Z,6.38
2022-12-18T07:05:57.873Z,5.25
2022-12-18T07:08:24.356Z,5.63
2022-12-18T07:10:55.931Z,5.80
2022-12-18T07:13:23.045Z,5.25
2022-12-18T07:15:49.523Z,5.03
2022-12-18T07:18:15.868Z,5.30
2022-12-18T07:20:42.210Z,4.85
2022-12-18T07:23:08.590Z,5.05
2022-12-18T07:25:35.774Z,5.30
2022-12-18T07:28:02.278Z,4.95
2022-12-18T07:30:28.625Z,5.22
2022-12-18T07:32:55.005Z,4.70
2022-12-18T07:35:24.904Z,4.82
2022-12-18T07:37:51.576Z,5.18
2022-12-18T07:40:17.895Z,4.95
2022-12-18T07:42:44.222Z,5.03
2022-12-18T07:45:10.747Z,5.30
2022-12-18T07:47:37.398Z,5.53
2022-12-18T07:50:04.478Z,5.50
2022-12-18T07:52:30.897Z,5.45
2022-12-18T07:54:57.398Z,5.50
2022-12-18T07:57:48.781Z,5.07
2022-12-18T08:00:10.471Z,5.68
2022-12-18T08:02:36.847Z,6.60
2022-12-18T08:05:05.965Z,6.07
2022-12-18T08:07:33.484Z,6.53
2022-12-18T08:09:59.787Z,6.32
2022-12-18T08:12:26.179Z,6.78
2022-12-18T08:14:52.528Z,6.25
2022-12-18T08:17:20.086Z,6.63
2022-12-18T08:19:46.482Z,6.65
2022-12-18T08:22:12.856Z,6.07
2022-12-18T08:24:39.220Z,7.05
2022-12-18T08:27:29.414Z,5.97
2022-12-18T08:29:51.927Z,6.78
2022-12-18T08:32:18.365Z,6.40
2022-12-18T08:34:44.841Z,5.00
2022-12-18T08:37:11.179Z,5.28
2022-12-18T08:39:37.526Z,5.55
2022-12-18T08:42:22.755Z,5.45
2022-12-18T08:47:18.302Z,5.00
2022-12-18T08:49:44.674Z,4.90
2022-12-18T08:52:11.021Z,5.95
2022-12-18T08:54:37.451Z,6.18
2022-12-18T08:57:03.916Z,5.47
2022-12-18T08:59:30.278Z,5.60
2022-12-18T09:01:56.741Z,5.80
2022-12-18T09:04:23.524Z,5.68
2022-12-18T09:06:49.940Z,4.82
2022-12-18T09:09:16.351Z,4.63
2022-12-18T09:11:42.749Z,5.47
2022-12-18T09:14:10.104Z,5.15
2022-12-18T09:16:36.528Z,4.88
2022-12-18T09:19:04.736Z,4.75
2022-12-18T09:21:36.120Z,4.82
2022-12-18T09:24:04.008Z,4.78
2022-12-18T09:26:31.398Z,4.45
2022-12-18T09:28:58.030Z,5.00
2022-12-18T09:31:25.503Z,4.95
2022-12-18T09:33:52.213Z,4.50
2022-12-18T09:36:19.210Z,5.00
2022-12-18T09:38:45.867Z,4.85
2022-12-18T09:41:30.952Z,4.90
2022-12-18T09:44:12.263Z,5.00
2022-12-18T09:46:41.514Z,5.30
2022-12-18T09:49:11.587Z,4.97
2022-12-18T09:51:40.520Z,6.10
2022-12-18T09:54:11.487Z,6.18
2022-12-18T09:56:40.041Z,5.68
2022-12-18T09:59:06.612Z,6.53
2022-12-18T10:01:40.219Z,6.53
2022-12-18T10:04:10.088Z,6.85
2022-12-18T10:06:39.991Z,6.30
2022-12-18T10:09:06.292Z,6.90
2022-12-18T10:11:41.945Z,6.63
2022-12-18T10:14:14.341Z,6.88
2022-12-18T10:16:50.582Z,7.63
2022-12-18T10:19:21.427Z,7.32
2022-12-18T10:22:06.376Z,6.90
2022-12-18T10:24:56.075Z,6.43
2022-12-18T10:27:26.604Z,6.50
2022-12-18T10:29:53.714Z,6.70
2022-12-18T10:32:21.640Z,5.80
2022-12-18T10:34:56.677Z,6.03
2022-12-18T10:37:27.268Z,6.32
2022-12-18T10:40:21.949Z,6.88
2022-12-18T10:43:03.709Z,6.53
2022-12-18T10:45:30.164Z,6.60
2022-12-18T10:47:56.488Z,7.20
2022-12-18T10:50:26.304Z,7.25
2022-12-18T10:52:59.398Z,6.78
2022-12-18T10:55:38.054Z,6.53
2022-12-18T10:58:26.628Z,6.75
2022-12-18T11:01:12.136Z,7.07
2022-12-18T11:03:38.600Z,6.65
2022-12-18T11:06:06.536Z,7.13
2022-12-18T11:08:33.254Z,8.45
2022-12-18T11:10:59.647Z,8.57
2022-12-18T11:13:27.505Z,7.85
2022-12-18T11:15:54.503Z,7.63
2022-12-18T11:18:21.200Z,7.70
2022-12-18T11:20:58.535Z,8.30
2022-12-18T11:23:25.235Z,8.93
2022-12-18T11:25:52.802Z,8.20
2022-12-18T11:28:37.955Z,7.93
2022-12-18T11:31:10.535Z,7.10
2022-12-18T11:33:38.204Z,8.55
2022-12-18T11:36:06.382Z,7.80
2022-12-18T11:38:37.883Z,7.25
2022-12-18T11:41:07.056Z,6.60
2022-12-18T11:43:46.508Z,6.30
2022-12-18T11:46:19.599Z,5.75
2022-12-18T11:48:59.736Z,5.32
2022-12-18T11:51:49.659Z,5.55
2022-12-18T11:54:16.564Z,5.85
2022-12-18T11:56:51.933Z,5.78
2022-12-18T11:59:19.912Z,6.25
2022-12-18T12:01:49.399Z,5.65
2022-12-18T12:04:21.765Z,5.63
2022-12-18T12:07:03.082Z,5.57
2022-12-18T12:09:44.424Z,5.20
2022-12-18T12:12:23.036Z,5.55
2022-12-18T12:15:03.128Z,5.65
2022-12-18T12:17:32.639Z,5.35
2022-12-18T12:20:11.457Z,5.38
2022-12-18T12:22:38.609Z,4.80
2022-12-18T12:25:11.230Z,4.72
2022-12-18T12:27:46.619Z,4.88
2022-12-18T12:30:22.214Z,4.88
2022-12-18T12:33:03.904Z,4.97
2022-12-18T12:35:41.336Z,4.95
2022-12-18T12:38:14.156Z,5.30
2022-12-18T12:40:55.201Z,5.10
2022-12-18T12:43:33.942Z,5.28
2022-12-18T12:46:02.125Z,4.82
2022-12-18T12:48:40.314Z,5.20
2022-12-18T12:51:17.172Z,4.60
2022-12-18T12:53:43.943Z,4.85
2022-12-18T12:56:12.396Z,4.95
2022-12-18T12:58:44.720Z,4.57
2022-12-18T13:01:33.572Z,4.72
2022-12-18T13:04:19.336Z,4.78
2022-12-18T13:09:34.129Z,4.72
2022-12-18T13:12:30.512Z,4.65
2022-12-18T13:15:20.243Z,5.55
2022-12-18T13:20:17.110Z,4.80
2022-12-18T13:22:48.033Z,5.00
2022-12-18T13:25:36.671Z,5.35
2022-12-18T13:28:06.092Z,5.00
2022-12-18T13:30:33.016Z,4.22
2022-12-18T13:33:25.689Z,5.05
2022-12-18T13:35:52.074Z,5.07
2022-12-18T13:38:21.472Z,4.78
2022-12-18T13:40:48.050Z,5.60
2022-12-18T13:43:20.308Z,5.72
2022-12-18T13:45:59.570Z,4.93
2022-12-18T13:48:26.866Z,5.03
2022-12-18T13:50:55.905Z,5.13
2022-12-18T13:53:24.496Z,4.68
2022-12-18T13:55:52.258Z,4.75
2022-12-18T13:58:18.679Z,5.28
2022-12-18T14:00:45.702Z,4.85
2022-12-18T14:03:22.086Z,4.78
2022-12-18T14:05:53.907Z,4.65
2022-12-18T14:08:21.441Z,4.68
2022-12-18T14:10:50.159Z,4.70
2022-12-18T14:13:20.484Z,4.97
2022-12-18T14:15:48.534Z,5.28
2022-12-18T14:18:23.993Z,4.63
2022-12-18T14:20:53.111Z,4.88
2022-12-18T14:23:26.811Z,4.82
2022-12-18T14:25:53.189Z,4.97
2022-12-18T14:28:19.673Z,5.38
2022-12-18T14:30:48.867Z,5.38
2022-12-18T14:33:19.883Z,5.90
2022-12-18T14:36:03.417Z,5.85
2022-12-18T14:38:29.842Z,4.95
2022-12-18T14:40:58.116Z,4.80
2022-12-18T14:43:24.867Z,5.00
2022-12-18T14:45:52.426Z,4.97
2022-12-18T14:48:23.807Z,4.85
2022-12-18T14:51:01.035Z,4.55
2022-12-18T14:53:34.467Z,4.63
2022-12-18T14:56:00.870Z,4.45
2022-12-18T14:58:27.823Z,4.95
2022-12-18T15:00:55.468Z,4.97
2022-12-18T15:03:22.842Z,5.47
2022-12-18T15:05:49.808Z,5.32
2022-12-18T15:08:30.290Z,5.63
2022-12-18T15:10:57.759Z,5.07
2022-12-18T15:13:25.811Z,4.93
2022-12-18T15:15:53.124Z,4.80
2022-12-18T15:18:22.123Z,4.70
2022-12-18T15:20:50.405Z,5.20
2022-12-18T15:23:20.188Z,5.30
2022-12-18T15:25:47.735Z,4.93
2022-12-18T15:28:20.433Z,5.10
2022-12-18T15:31:00.578Z,4.93
2022-12-18T15:33:30.733Z,5.38
2022-12-18T15:35:58.011Z,5.03
2022-12-18T15:38:24.456Z,5.25
2022-12-18T15:40:50.756Z,7.10
2022-12-18T15:43:37.599Z,5.93
2022-12-18T15:46:05.056Z,5.93
2022-12-18T15:48:32.807Z,5.03
2022-12-18T15:50:59.589Z,5.22
2022-12-18T15:53:30.279Z,5.60
2022-12-18T15:56:15.400Z,7.00
2022-12-18T15:58:42.893Z,5.68
2022-12-18T16:01:10.311Z,5.90
2022-12-18T16:03:36.994Z,6.32
2022-12-18T16:06:04.133Z,6.18
2022-12-18T16:08:30.925Z,5.65
2022-12-18T16:10:57.834Z,5.47
2022-12-18T16:13:24.351Z,5.47
2022-12-18T16:15:50.930Z,5.20
2022-12-18T16:18:17.287Z,5.32
2022-12-18T16:20:43.694Z,5.65
2022-12-18T16:23:10.062Z,6.05
2022-12-18T16:25:36.446Z,5.35
2022-12-18T16:28:02.851Z,5.32
2022-12-18T16:30:35.805Z,5.88
2022-12-18T16:33:05.386Z,6.07
2022-12-18T16:35:31.770Z,5.93
2022-12-18T16:37:58.155Z,6.32
2022-12-18T16:40:24.525Z,5.57
2022-12-18T16:42:50.914Z,5.85
2022-12-18T16:45:18.142Z,6.18
2022-12-18T16:47:44.487Z,5.78
2022-12-18T16:50:11.099Z,5.97
2022-12-18T16:52:37.565Z,5.50
2022-12-18T16:55:04.089Z,5.85
2022-12-18T16:57:31.767Z,6.03
2022-12-18T17:00:04.426Z,6.15
2022-12-18T17:02:32.046Z,6.10
2022-12-18T17:04:59.168Z,6.68
2022-12-18T17:07:28.960Z,6.65
2022-12-18T17:09:55.766Z,6.72
2022-12-18T17:12:23.669Z,7.32
2022-12-18T17:14:50.012Z,6.15
2022-12-18T17:17:21.844Z,5.80
2022-12-18T17:19:48.518Z,7.65
2022-12-18T17:22:14.900Z,6.13
2022-12-18T17:24:41.253Z,6.28
2022-12-18T17:27:08.826Z,6.30
2022-12-18T17:29:35.372Z,6.10
2022-12-18T17:32:01.768Z,5.70
2022-12-18T17:34:28.294Z,6.78
2022-12-18T17:36:55.339Z,7.47
2022-12-18T17:39:21.706Z,10.38
2022-12-18T17:41:48.833Z,9.02
2022-12-18T17:44:15.732Z,6.97
2022-12-18T17:46:42.332Z,5.85
2022-12-18T17:49:10.195Z,6.53
2022-12-18T17:51:36.591Z,7.05
2022-12-18T17:54:03.028Z,6.47
2022-12-18T17:56:29.496Z,6.32
2022-12-18T17:58:55.914Z,6.93
2022-12-18T18:01:25.903Z,7.20
2022-12-18T18:03:54.076Z,6.72
2022-12-18T18:06:20.850Z,6.68
2022-12-18T18:08:47.757Z,5.97
2022-12-18T18:11:34.828Z,6.00
2022-12-18T18:14:01.397Z,7.50
2022-12-18T18:16:38.860Z,6.50
2022-12-18T18:19:06.934Z,6.32
2022-12-18T18:21:34.436Z,5.68
2022-12-18T18:24:02.176Z,6.28
2022-12-18T18:26:31.069Z,6.95
2022-12-18T18:28:58.226Z,7.13
2022-12-18T18:31:28.595Z,7.28
2022-12-18T18:33:55.104Z,6.57
2022-12-18T18:36:22.388Z,6.10
2022-12-18T18:38:48.796Z,5.82
2022-12-18T18:41:15.338Z,6.00
2022-12-18T18:43:42.222Z,8.98
2022-12-18T18:46:10.143Z,10.57
2022-12-18T18:48:37.313Z,12.25
2022-12-18T18:51:14.691Z,6.57
2022-12-18T18:53:49.229Z,5.95
2022-12-18T18:56:45.064Z,4.85
2022-12-18T18:59:03.033Z,4.68
2022-12-18T19:01:29.490Z,4.28
2022-12-18T19:03:56.300Z,3.90
2022-12-18T19:06:24.170Z,3.95
2022-12-18T19:08:51.620Z,4.85
2022-12-18T19:11:36.891Z,5.07
2022-12-18T19:14:04.343Z,4.50
2022-12-18T19:16:31.471Z,4.38
2022-12-18T19:19:01.540Z,4.47
2022-12-18T19:21:28.919Z,4.22
2022-12-18T19:23:57.860Z,5.07
2022-12-18T19:26:28.026Z,6.68
2022-12-18T19:28:54.727Z,5.18
2022-12-18T19:31:27.024Z,6.80
2022-12-18T19:33:55.640Z,5.00
2022-12-18T19:36:25.665Z,5.88
2022-12-18T19:38:53.750Z,5.38
2022-12-18T19:41:20.684Z,4.78
2022-12-18T19:43:47.577Z,4.68
2022-12-18T19:46:15.253Z,3.50
2022-12-18T19:48:42.469Z,2.97
2022-12-18T19:51:10.384Z,3.15
2022-12-18T19:53:36.756Z,4.55
2022-12-18T19:56:07.031Z,4.40
2022-12-18T19:58:33.505Z,4.60
2022-12-18T20:00:59.889Z,4.43
2022-12-18T20:03:32.080Z,3.25
2022-12-18T20:06:09.459Z,3.25
2022-12-18T20:08:36.111Z,2.63
2022-12-18T20:11:02.496Z,2.90
2022-12-18T20:13:29.350Z,2.40
2022-12-18T20:15:55.710Z,2.58
2022-12-18T20:18:22.025Z,2.60
2022-12-18T20:20:50.123Z,2.88
2022-12-18T20:23:18.330Z,2.50
2022-12-18T20:25:44.892Z,2.75
2022-12-18T20:28:11.316Z,2.22
2022-12-18T20:30:37.697Z,2.53
2022-12-18T20:33:04.048Z,2.70
2022-12-18T20:35:32.079Z,2.92
2022-12-18T20:37:59.191Z,2.60
2022-12-18T20:40:27.445Z,3.15
2022-12-18T20:42:53.820Z,2.58
2022-12-18T20:45:20.182Z,2.10
2022-12-18T20:47:46.575Z,2.25
2022-12-18T20:50:12.944Z,2.40
2022-12-18T20:52:39.236Z,2.08
2022-12-18T20:55:06.152Z,2.00
2022-12-18T20:57:32.841Z,2.90
2022-12-18T20:59:59.204Z,2.55
2022-12-18T21:02:25.698Z,2.72
2022-12-18T21:04:53.216Z,1.92
2022-12-18T21:07:19.611Z,2.65
2022-12-18T21:09:45.957Z,2.97
2022-12-18T21:12:40.659Z,3.15
2022-12-18T21:15:15.040Z,2.60
2022-12-18T21:17:45.006Z,2.58
2022-12-18T21:20:11.930Z,2.78
2022-12-18T21:22:43.992Z,2.35
2022-12-18T21:25:10.423Z,2.30
2022-12-18T21:27:36.758Z,3.65
2022-12-18T21:30:03.417Z,3.00
2022-12-18T21:32:29.909Z,2.53
2022-12-18T21:34:59.969Z,1.85
2022-12-18T21:37:26.665Z,2.08
2022-12-18T21:39:53.095Z,2.30
2022-12-18T21:42:37.968Z,2.25
2022-12-18T21:45:04.965Z,1.60
2022-12-18T21:47:31.407Z,2.10
2022-12-18T21:49:57.729Z,2.58
2022-12-18T21:52:31.185Z,2.30
2022-12-18T21:55:01.880Z,2.38
2022-12-18T21:57:32.874Z,2.38
2022-12-18T21:59:59.218Z,2.53
2022-12-18T22:02:26.688Z,2.53
2022-12-18T22:04:53.231Z,2.30
2022-12-18T22:07:20.460Z,2.20
2022-12-18T22:09:49.084Z,2.20
2022-12-18T22:12:35.645Z,2.22
2022-12-18T22:15:09.914Z,2.35
2022-12-18T22:17:37.357Z,2.47
2022-12-18T22:20:03.937Z,3.45
2022-12-18T22:22:30.591Z,2.70
2022-12-18T22:24:56.929Z,1.98
2022-12-18T22:27:23.310Z,2.10
2022-12-18T22:30:04.935Z,2.05
2022-12-18T22:32:35.572Z,2.60
2022-12-18T22:35:07.221Z,2.38
2022-12-18T22:37:37.222Z,2.97
2022-12-18T22:40:04.495Z,2.95
2022-12-18T22:42:31.540Z,4.25
2022-12-18T22:44:57.982Z,2.53
2022-12-18T22:47:29.488Z,2.20
2022-12-18T22:49:56.404Z,2.17
2022-12-18T22:52:23.812Z,1.80
2022-12-18T22:54:51.546Z,2.00
2022-12-18T22:57:20.235Z,2.60
2022-12-18T22:59:46.537Z,2.20
2022-12-18T23:02:13.169Z,2.10
2022-12-18T23:04:39.798Z,2.22
2022-12-18T23:07:06.427Z,1.80
2022-12-18T23:09:32.965Z,2.15
2022-12-18T23:11:59.391Z,2.10
2022-12-18T23:14:26.018Z,1.80
2022-12-18T23:16:53.034Z,2.08
2022-12-18T23:19:19.867Z,1.90
2022-12-18T23:21:46.363Z,2.28
2022-12-18T23:24:12.672Z,2.22
2022-12-18T23:26:39.056Z,2.10
2022-12-18T23:29:05.407Z,1.90
2022-12-18T23:31:33.130Z,2.05
2022-12-18T23:34:00.179Z,1.80
2022-12-18T23:36:26.968Z,2.15
2022-12-18T23:38:57.653Z,2.28
2022-12-18T23:41:25.448Z,2.45
2022-12-18T23:43:52.450Z,2.08
2022-12-18T23:46:19.677Z,2.15
2022-12-18T23:48:46.359Z,1.90
2022-12-18T23:51:13.467Z,1.83
2022-12-18T23:53:40.181Z,1.98
2022-12-18T23:56:06.683Z,2.10
2022-12-18T23:58:34.165Z,2.28
